Time;durP1;ratioP1;P1;durP2;ratioP2;P2;SDS_P1;SDS_P2;PMS_P1;PMS_P2;Temp;Humidity;BMP_temperature;BMP_pressure;BME280_temperature;BME280_humidity;BME280_pressure;Samples;Min_cycle;Max_cycle;Signal;HPM_P1;HPM_P2
2022/03/04 00:00:44;;;;;;;46.08;25.75;;;0.60;99.90;;;;;;5040339;28;20204;-47
2022/03/04 00:03:11;;;;;;;43.30;23.27;;;0.70;99.90;;;;;;5040948;28;20239;-47
2022/03/04 00:05:39;;;;;;;47.13;26.27;;;0.50;99.90;;;;;;5040557;28;20196;-49
2022/03/04 00:08:07;;;;;;;46.75;22.92;;;0.50;99.90;;;;;;5040872;28;20219;-50
2022/03/04 00:10:34;;;;;;;39.83;21.98;;;0.40;99.90;;;;;;5039861;28;20204;-49
2022/03/04 00:13:03;;;;;;;48.17;25.67;;;0.50;99.90;;;;;;5040342;28;20493;-45
2022/03/04 00:15:30;;;;;;;43.75;24.60;;;0.60;99.90;;;;;;5040448;28;20224;-51
2022/03/04 00:17:58;;;;;;;38.95;21.98;;;0.60;99.90;;;;;;5040480;28;20429;-46
2022/03/04 00:20:25;;;;;;;46.58;23.63;;;0.70;99.90;;;;;;5040491;28;20196;-52
2022/03/04 00:22:52;;;;;;;39.42;22.27;;;0.70;99.90;;;;;;5039847;28;20273;-47
2022/03/04 00:25:19;;;;;;;38.28;20.80;;;0.90;99.90;;;;;;5040002;28;20200;-47
2022/03/04 00:27:47;;;;;;;32.90;20.08;;;0.90;99.90;;;;;;5039589;28;20514;-49
2022/03/04 00:30:14;;;;;;;34.42;18.80;;;0.90;99.90;;;;;;5040155;28;20382;-48
2022/03/04 00:32:41;;;;;;;37.47;20.42;;;1.00;99.90;;;;;;5039514;28;20315;-46
2022/03/04 00:35:09;;;;;;;36.65;19.67;;;1.00;99.90;;;;;;5040054;28;20278;-49
2022/03/04 00:37:36;;;;;;;37.53;20.50;;;0.90;99.90;;;;;;5039707;28;20196;-51
2022/03/04 00:40:05;;;;;;;33.58;19.88;;;1.00;99.90;;;;;;5039623;28;20522;-48
2022/03/04 00:42:32;;;;;;;34.70;21.17;;;1.00;99.90;;;;;;5039995;28;20626;-44
2022/03/04 00:44:59;;;;;;;36.38;18.92;;;0.90;99.90;;;;;;5039738;28;20258;-49
2022/03/04 00:47:26;;;;;;;32.70;20.35;;;0.90;99.90;;;;;;5039910;28;20200;-50
2022/03/04 00:49:53;;;;;;;31.05;18.02;;;0.90;99.90;;;;;;5039483;28;20273;-47
2022/03/04 00:52:20;;;;;;;37.22;20.20;;;0.90;99.90;;;;;;5039622;28;20326;-48
2022/03/04 00:54:47;;;;;;;36.65;19.83;;;0.80;99.90;;;;;;5039327;28;20251;-52
2022/03/04 00:57:15;;;;;;;37.53;20.75;;;0.80;99.90;;;;;;5039828;28;20319;-50
2022/03/04 00:59:42;;;;;;;35.13;20.60;;;0.80;99.90;;;;;;5039524;28;20226;-47
2022/03/04 01:02:09;;;;;;;37.38;18.40;;;0.80;99.90;;;;;;5039587;28;20235;-45
2022/03/04 01:04:36;;;;;;;41.47;21.58;;;0.90;99.90;;;;;;5039582;28;20329;-50
2022/03/04 01:07:04;;;;;;;32.42;19.92;;;0.80;99.90;;;;;;5039234;28;20204;-48
2022/03/04 01:09:31;;;;;;;34.60;20.60;;;0.90;99.90;;;;;;5039528;28;20207;-49
2022/03/04 01:11:58;;;;;;;30.60;18.90;;;0.80;99.90;;;;;;5038937;28;20287;-52
2022/03/04 01:14:26;;;;;;;42.25;22.95;;;0.80;99.90;;;;;;5039676;28;20216;-45
2022/03/04 01:16:53;;;;;;;38.53;19.88;;;0.70;99.90;;;;;;5039076;28;20263;-45
2022/03/04 01:19:20;;;;;;;35.20;19.58;;;0.80;99.90;;;;;;5039583;28;20200;-44
2022/03/04 01:21:47;;;;;;;41.35;21.85;;;0.80;99.90;;;;;;5038499;28;20513;-46
2022/03/04 01:24:14;;;;;;;41.90;22.83;;;0.80;99.90;;;;;;5039322;28;20206;-46
2022/03/04 01:26:42;;;;;;;42.15;23.52;;;0.90;99.90;;;;;;5038938;28;20200;-48
2022/03/04 01:29:09;;;;;;;48.78;24.38;;;0.90;99.90;;;;;;5039602;28;20227;-47
2022/03/04 01:31:36;;;;;;;43.50;21.30;;;0.70;99.90;;;;;;5039219;28;20443;-43
2022/03/04 01:34:03;;;;;;;47.35;23.90;;;0.80;99.90;;;;;;5040199;28;20601;-44
2022/03/04 01:36:33;;;;;;;42.67;24.77;;;0.90;99.90;;;;;;5042485;28;20226;-47
2022/03/04 01:39:01;;;;;;;34.05;21.75;;;0.80;99.90;;;;;;5040660;28;20196;-48
2022/03/04 01:41:28;;;;;;;47.92;23.70;;;0.70;99.90;;;;;;5039336;28;20222;-50
2022/03/04 01:43:55;;;;;;;48.50;24.65;;;0.80;99.90;;;;;;5039121;28;20242;-47
2022/03/04 01:46:28;;;;;;;48.10;22.95;;;1.00;99.90;;;;;;5039242;28;20506;-48
2022/03/04 01:48:55;;;;;;;48.58;22.40;;;1.10;99.90;;;;;;5038757;28;20212;-50
2022/03/04 01:51:22;;;;;;;49.10;24.23;;;1.10;99.90;;;;;;5039048;28;20589;-46
2022/03/04 01:53:49;;;;;;;42.13;24.67;;;1.20;99.90;;;;;;5038646;28;20520;-46
2022/03/04 01:56:17;;;;;;;46.05;24.15;;;1.30;99.90;;;;;;5038938;28;20235;-44
2022/03/04 01:58:44;;;;;;;44.50;25.30;;;1.30;99.90;;;;;;5039063;28;20243;-45
2022/03/04 02:01:11;;;;;;;48.00;23.98;;;1.30;99.90;;;;;;5038541;28;20197;-44
2022/03/04 02:03:38;;;;;;;44.95;26.40;;;1.20;99.90;;;;;;5039032;28;20228;-46
2022/03/04 02:06:05;;;;;;;46.58;23.42;;;1.10;99.90;;;;;;5038857;28;20201;-45
2022/03/04 02:08:32;;;;;;;46.17;23.60;;;1.00;99.90;;;;;;5038858;28;20200;-48
2022/03/04 02:11:01;;;;;;;44.17;24.90;;;1.10;99.90;;;;;;5038653;28;20222;-49
2022/03/04 02:13:28;;;;;;;42.33;21.88;;;1.30;99.90;;;;;;5039482;28;20200;-48
2022/03/04 02:15:56;;;;;;;39.10;23.88;;;1.30;99.90;;;;;;5041163;28;20224;-46
2022/03/04 02:18:23;;;;;;;45.47;22.88;;;1.20;99.90;;;;;;5043133;28;20196;-46
2022/03/04 02:20:52;;;;;;;47.03;23.90;;;1.00;99.90;;;;;;5042426;28;20523;-49
2022/03/04 02:23:20;;;;;;;42.17;24.42;;;1.00;99.90;;;;;;5042667;28;20243;-46
2022/03/04 02:25:50;;;;;;;43.20;25.15;;;1.00;99.90;;;;;;5042499;28;20200;-47
2022/03/04 02:28:21;;;;;;;41.42;23.92;;;1.00;99.90;;;;;;5042272;28;20380;-46
2022/03/04 02:30:49;;;;;;;55.53;24.75;;;1.00;99.90;;;;;;5042468;28;20413;-47
2022/03/04 02:33:16;;;;;;;43.65;24.80;;;1.20;99.90;;;;;;5042243;28;20392;-48
2022/03/04 02:35:44;;;;;;;45.50;26.15;;;1.10;99.90;;;;;;5041993;28;20258;-49
2022/03/04 02:38:11;;;;;;;47.55;24.38;;;1.20;99.90;;;;;;5042434;28;20387;-44
2022/03/04 02:40:38;;;;;;;53.50;29.27;;;1.20;99.90;;;;;;5042215;28;20223;-48
2022/03/04 02:43:06;;;;;;;42.53;26.70;;;1.00;99.90;;;;;;5041983;28;20266;-45
2022/03/04 02:45:34;;;;;;;58.22;26.17;;;1.00;99.90;;;;;;5041978;28;20518;-47
2022/03/04 02:48:01;;;;;;;50.50;27.02;;;1.20;99.90;;;;;;5041956;28;20463;-49
2022/03/04 02:50:30;;;;;;;51.47;26.60;;;1.20;99.90;;;;;;5049896;28;20258;-48
2022/03/04 02:52:57;;;;;;;58.03;30.63;;;1.10;99.90;;;;;;5060344;28;20287;-48
2022/03/04 02:55:24;;;;;;;56.53;28.35;;;0.90;99.90;;;;;;5061456;28;20219;-46
2022/03/04 02:57:51;;;;;;;63.42;30.45;;;0.90;99.90;;;;;;5061700;28;20206;-50
2022/03/04 03:00:18;;;;;;;56.10;30.20;;;1.00;99.90;;;;;;5061586;28;20199;-45
2022/03/04 03:02:45;;;;;;;50.65;28.42;;;0.90;99.90;;;;;;5061525;28;20216;-49
2022/03/04 03:05:13;;;;;;;51.75;28.63;;;0.90;99.90;;;;;;5061638;28;20206;-47
2022/03/04 03:07:41;;;;;;;57.58;29.20;;;1.00;99.90;;;;;;5062018;28;20419;-48
2022/03/04 03:10:09;;;;;;;55.45;25.40;;;1.10;99.90;;;;;;5061229;28;20208;-46
2022/03/04 03:12:38;;;;;;;61.67;28.38;;;1.30;99.90;;;;;;5061472;28;20227;-48
2022/03/04 03:15:06;;;;;;;46.45;26.70;;;1.50;99.90;;;;;;5061425;28;20274;-48
2022/03/04 03:17:33;;;;;;;51.88;26.58;;;1.30;99.90;;;;;;5062326;28;20246;-49
2022/03/04 03:20:01;;;;;;;47.33;25.20;;;1.20;99.90;;;;;;5066847;28;20195;-49
2022/03/04 03:22:28;;;;;;;52.30;28.63;;;1.00;99.90;;;;;;5065405;28;20219;-47
2022/03/04 03:24:55;;;;;;;51.63;27.05;;;1.10;99.90;;;;;;5062432;28;20506;-45
2022/03/04 03:27:23;;;;;;;46.50;24.85;;;1.10;99.90;;;;;;5062747;28;20199;-45
2022/03/04 03:29:50;;;;;;;55.40;27.15;;;1.10;99.90;;;;;;5065129;28;20433;-47
2022/03/04 03:32:18;;;;;;;48.92;23.38;;;1.00;99.90;;;;;;5062217;28;20243;-50
2022/03/04 03:34:45;;;;;;;51.13;24.65;;;0.90;99.90;;;;;;5060878;28;20319;-47
2022/03/04 03:37:12;;;;;;;53.22;25.23;;;0.70;99.90;;;;;;5060750;28;20324;-47
2022/03/04 03:39:39;;;;;;;47.05;26.80;;;0.70;99.90;;;;;;5061199;28;20254;-46
2022/03/04 03:42:07;;;;;;;44.08;24.55;;;0.70;99.90;;;;;;5060991;28;20223;-46
2022/03/04 03:44:34;;;;;;;42.40;28.08;;;0.80;99.90;;;;;;5060779;28;20405;-49
2022/03/04 03:47:02;;;;;;;40.38;22.92;;;0.80;99.90;;;;;;5061028;28;20218;-48
2022/03/04 03:49:30;;;;;;;48.55;26.30;;;0.80;99.90;;;;;;5060235;28;20211;-49
2022/03/04 03:51:57;;;;;;;46.13;25.52;;;0.80;99.90;;;;;;5060730;28;20247;-49
2022/03/04 03:54:25;;;;;;;45.08;24.33;;;0.80;99.90;;;;;;5060462;28;20211;-47
2022/03/04 03:56:52;;;;;;;47.58;25.20;;;0.90;99.90;;;;;;5060591;28;20196;-46
2022/03/04 03:59:19;;;;;;;50.70;27.25;;;0.90;99.90;;;;;;5060268;28;20530;-46
2022/03/04 04:01:46;;;;;;;42.90;23.60;;;0.90;99.90;;;;;;5060793;28;20254;-47
2022/03/04 04:04:14;;;;;;;48.40;26.00;;;1.00;99.90;;;;;;5060154;28;20195;-48
2022/03/04 04:06:42;;;;;;;42.75;26.40;;;1.10;99.90;;;;;;5060319;28;20230;-44
2022/03/04 04:09:10;;;;;;;46.00;24.83;;;1.10;99.90;;;;;;5060463;28;20522;-46
2022/03/04 04:11:39;;;;;;;49.65;28.30;;;1.20;99.90;;;;;;5059825;28;20216;-48
2022/03/04 04:14:08;;;;;;;43.25;22.20;;;1.20;99.90;;;;;;5060297;28;20199;-51
2022/03/04 04:16:37;;;;;;;44.70;26.60;;;1.30;99.90;;;;;;5059682;28;20223;-51
2022/03/04 04:19:05;;;;;;;45.63;24.83;;;1.30;99.90;;;;;;5040895;28;20238;-47
2022/03/04 04:21:34;;;;;;;54.70;24.90;;;1.20;99.90;;;;;;5040044;28;20220;-49
2022/03/04 04:24:01;;;;;;;58.03;26.20;;;1.30;99.90;;;;;;5039917;28;20203;-45
2022/03/04 04:26:28;;;;;;;44.40;23.38;;;1.20;99.90;;;;;;5048161;28;20413;-46
2022/03/04 04:28:56;;;;;;;43.88;23.58;;;1.20;99.90;;;;;;5040015;28;20254;-47
2022/03/04 04:31:23;;;;;;;44.75;25.55;;;1.10;99.90;;;;;;5039745;28;20532;-48
2022/03/04 04:33:51;;;;;;;49.35;26.30;;;1.20;99.90;;;;;;5039631;28;20200;-45
2022/03/04 04:36:19;;;;;;;41.75;23.50;;;1.10;99.90;;;;;;5039784;28;20232;-49
2022/03/04 04:38:46;;;;;;;48.63;27.30;;;1.20;99.90;;;;;;5039240;28;20271;-48
2022/03/04 04:41:15;;;;;;;55.65;27.60;;;1.10;99.90;;;;;;5040100;28;20188;-49
2022/03/04 04:43:42;;;;;;;53.22;29.55;;;1.00;99.90;;;;;;5039883;28;20199;-48
2022/03/04 04:46:09;;;;;;;47.28;28.23;;;1.00;99.90;;;;;;5039678;28;20245;-46
2022/03/04 04:48:37;;;;;;;47.72;27.63;;;1.10;99.90;;;;;;5039352;28;20279;-48
2022/03/04 04:51:05;;;;;;;42.20;25.65;;;1.10;99.90;;;;;;5039977;28;20200;-46
2022/03/04 04:53:38;;;;;;;52.63;29.13;;;1.00;99.90;;;;;;5039247;28;20342;-46
2022/03/04 04:56:05;;;;;;;62.75;28.05;;;0.90;99.90;;;;;;5039752;28;20310;-45
2022/03/04 04:58:32;;;;;;;53.10;27.73;;;0.90;99.90;;;;;;5039030;28;20218;-48
2022/03/04 05:01:00;;;;;;;46.10;28.35;;;1.00;99.90;;;;;;5041359;28;20314;-46
2022/03/04 05:03:28;;;;;;;47.03;25.55;;;1.10;99.90;;;;;;5051047;28;20211;-51
2022/03/04 05:05:56;;;;;;;52.35;27.05;;;1.20;99.90;;;;;;5059372;28;20229;-44
2022/03/04 05:08:27;;;;;;;49.95;25.90;;;1.20;99.90;;;;;;5059396;28;20211;-49
2022/03/04 05:10:58;;;;;;;53.53;26.02;;;1.10;99.90;;;;;;5058748;28;20293;-48
2022/03/04 05:13:25;;;;;;;49.97;27.42;;;1.20;99.90;;;;;;5058876;28;20235;-51
2022/03/04 05:15:52;;;;;;;58.17;27.17;;;1.30;99.90;;;;;;5058917;28;20227;-45
2022/03/04 05:18:19;;;;;;;38.85;22.90;;;1.40;99.90;;;;;;5059506;28;20203;-46
2022/03/04 05:20:46;;;;;;;46.55;26.85;;;1.20;99.90;;;;;;5059029;28;20217;-47
2022/03/04 05:23:58;;;;;;;47.60;29.30;;;1.20;99.90;;;;;;5059072;28;20216;-50
2022/03/04 05:26:03;;;;;;;43.25;26.50;;;1.20;99.90;;;;;;5059217;28;20556;-48
2022/03/04 05:28:30;;;;;;;37.70;20.45;;;1.30;99.90;;;;;;5059055;28;20245;-46
2022/03/04 05:30:57;;;;;;;40.60;24.67;;;1.30;99.90;;;;;;5058973;28;20222;-46
2022/03/04 05:33:24;;;;;;;51.17;26.60;;;1.30;99.90;;;;;;5058436;28;20250;-49
2022/03/04 05:35:51;;;;;;;45.55;25.77;;;1.30;99.90;;;;;;5058621;28;20228;-45
2022/03/04 05:38:18;;;;;;;52.42;24.23;;;1.30;99.90;;;;;;5059451;28;20310;-47
2022/03/04 05:40:45;;;;;;;46.92;24.50;;;1.30;99.90;;;;;;5058989;28;20286;-44
2022/03/04 05:43:13;;;;;;;48.67;24.70;;;1.20;99.90;;;;;;5058617;28;20223;-47
2022/03/04 05:45:40;;;;;;;48.45;24.90;;;1.20;99.90;;;;;;5059019;28;20203;-45
2022/03/04 05:48:07;;;;;;;41.45;23.58;;;1.30;99.90;;;;;;5046048;28;20241;-52
2022/03/04 05:50:34;;;;;;;54.58;23.63;;;1.30;99.90;;;;;;5054616;28;20199;-45
2022/03/04 05:53:01;;;;;;;55.40;25.58;;;1.40;99.90;;;;;;5062764;28;20416;-50
2022/03/04 05:55:28;;;;;;;51.80;27.35;;;1.50;99.90;;;;;;5056323;28;20500;-48
2022/03/04 05:57:55;;;;;;;42.42;23.33;;;1.50;99.90;;;;;;5052176;28;20491;-49
2022/03/04 06:00:22;;;;;;;47.45;24.95;;;1.60;99.90;;;;;;5062418;28;20325;-44
2022/03/04 06:02:50;;;;;;;56.22;27.10;;;1.40;99.90;;;;;;5062209;28;20220;-46
2022/03/04 06:05:17;;;;;;;51.05;23.48;;;1.70;99.90;;;;;;5062933;28;20207;-45
2022/03/04 06:07:44;;;;;;;43.80;23.83;;;1.80;99.90;;;;;;5062546;28;20557;-46
2022/03/04 06:10:11;;;;;;;54.67;25.02;;;1.70;99.90;;;;;;5062156;28;20207;-44
2022/03/04 06:12:39;;;;;;;51.30;24.25;;;1.60;99.90;;;;;;5062238;28;20298;-47
2022/03/04 06:15:09;;;;;;;48.75;24.35;;;1.70;99.90;;;;;;5062929;28;20227;-46
2022/03/04 06:17:37;;;;;;;45.88;23.45;;;1.80;99.90;;;;;;5062326;28;20241;-50
2022/03/04 06:20:05;;;;;;;45.83;25.27;;;2.10;99.90;;;;;;5062392;28;20205;-46
2022/03/04 06:22:33;;;;;;;47.40;25.42;;;2.10;99.90;;;;;;5061118;28;20277;-47
2022/03/04 06:25:01;;;;;;;50.60;23.85;;;2.20;99.90;;;;;;5062438;28;20195;-45
2022/03/04 06:27:28;;;;;;;35.53;20.98;;;2.30;99.90;;;;;;5062061;28;20192;-48
2022/03/04 06:29:55;;;;;;;47.15;22.17;;;2.20;99.90;;;;;;5061771;28;20202;-48
2022/03/04 06:32:22;;;;;;;55.10;24.48;;;2.00;99.90;;;;;;5061926;28;20512;-43
2022/03/04 06:34:50;;;;;;;43.28;23.92;;;2.00;99.90;;;;;;5061787;28;20582;-46
2022/03/04 06:37:17;;;;;;;46.38;22.10;;;2.10;99.90;;;;;;5061707;28;20207;-47
2022/03/04 06:39:44;;;;;;;47.90;23.92;;;2.20;99.90;;;;;;5040899;28;20250;-46
2022/03/04 06:42:15;;;;;;;47.25;26.02;;;2.20;99.90;;;;;;5050639;28;20223;-45
2022/03/04 06:44:42;;;;;;;52.45;24.50;;;2.20;99.90;;;;;;5045721;28;20267;-44
2022/03/04 06:47:09;;;;;;;43.50;22.77;;;2.50;99.90;;;;;;5041880;28;20240;-48
2022/03/04 06:49:38;;;;;;;41.45;23.40;;;2.30;99.90;;;;;;5041128;28;20259;-48
2022/03/04 06:52:05;;;;;;;48.72;21.67;;;2.30;99.90;;;;;;5041458;28;20225;-46
2022/03/04 06:54:33;;;;;;;50.55;22.92;;;2.40;99.90;;;;;;5041247;28;20208;-45
2022/03/04 06:57:00;;;;;;;43.78;21.98;;;2.50;99.90;;;;;;5038276;28;20287;-49
2022/03/04 06:59:27;;;;;;;44.53;22.75;;;2.30;99.90;;;;;;5040904;28;20561;-45
2022/03/04 07:01:55;;;;;;;44.35;23.80;;;2.30;99.90;;;;;;5040922;28;20217;-49
2022/03/04 07:04:22;;;;;;;46.38;24.88;;;2.30;99.90;;;;;;5052211;28;20231;-48
2022/03/04 07:06:49;;;;;;;48.88;22.92;;;2.20;99.90;;;;;;5052950;28;20253;-45
2022/03/04 07:09:16;;;;;;;45.72;24.00;;;2.40;99.90;;;;;;5061116;28;20196;-50
2022/03/04 07:11:44;;;;;;;46.47;20.85;;;2.50;99.90;;;;;;5052324;28;20331;-46
2022/03/04 07:14:11;;;;;;;47.40;22.58;;;2.70;99.90;;;;;;5054281;28;20208;-49
2022/03/04 07:16:38;;;;;;;43.85;24.17;;;2.80;99.90;;;;;;5052230;28;20223;-48
2022/03/04 07:19:05;;;;;;;49.55;23.75;;;2.80;99.90;;;;;;5060974;28;20195;-49
2022/03/04 07:21:32;;;;;;;46.85;25.45;;;2.80;99.90;;;;;;5060756;28;20220;-46
2022/03/04 07:24:01;;;;;;;51.78;26.27;;;2.90;99.90;;;;;;5060794;28;20379;-45
2022/03/04 07:26:28;;;;;;;46.42;21.75;;;3.10;99.90;;;;;;5060519;28;20209;-45
2022/03/04 07:28:56;;;;;;;42.42;24.58;;;3.10;99.90;;;;;;5060173;28;20258;-50
2022/03/04 07:31:23;;;;;;;45.80;25.90;;;3.10;99.90;;;;;;5060428;28;20227;-47
2022/03/04 07:33:50;;;;;;;41.20;20.88;;;3.20;99.90;;;;;;5052105;28;20201;-46
2022/03/04 07:36:17;;;;;;;51.60;23.85;;;3.00;99.90;;;;;;5060863;28;20217;-49
2022/03/04 07:38:45;;;;;;;53.33;25.45;;;3.10;99.90;;;;;;5060582;28;20383;-47
2022/03/04 07:41:12;;;;;;;38.38;22.45;;;3.10;99.90;;;;;;5060426;28;20564;-43
2022/03/04 07:43:39;;;;;;;44.90;25.05;;;3.20;99.90;;;;;;5060877;28;20204;-50
2022/03/04 07:46:12;;;;;;;37.75;23.00;;;3.20;99.90;;;;;;5061048;28;20201;-44
2022/03/04 07:48:40;;;;;;;40.22;21.95;;;3.20;99.90;;;;;;5060677;28;20207;-45
2022/03/04 07:51:07;;;;;;;43.53;20.58;;;3.30;99.90;;;;;;5060670;28;20201;-49
2022/03/04 07:53:34;;;;;;;45.35;23.67;;;3.30;99.90;;;;;;5060419;28;20247;-45
2022/03/04 07:56:02;;;;;;;54.65;25.50;;;3.20;99.90;;;;;;5060190;28;20535;-46
2022/03/04 07:58:30;;;;;;;45.10;23.13;;;3.40;99.90;;;;;;5060650;28;20199;-51
2022/03/04 08:00:57;;;;;;;40.35;21.27;;;3.50;99.90;;;;;;5060156;28;20609;-45
2022/03/04 08:03:45;;;;;;;38.97;23.85;;;3.70;99.90;;;;;;5059165;28;20193;-46
2022/03/04 08:06:13;;;;;;;46.22;23.27;;;3.90;99.90;;;;;;5060336;28;20233;-46
2022/03/04 08:08:40;;;;;;;34.28;20.83;;;3.70;99.90;;;;;;5059769;28;20283;-45
2022/03/04 08:11:08;;;;;;;48.00;26.30;;;3.70;99.90;;;;;;5059450;28;20212;-47
2022/03/04 08:13:36;;;;;;;40.65;23.13;;;3.80;99.90;;;;;;5059769;28;20232;-48
2022/03/04 08:16:04;;;;;;;44.75;22.67;;;3.80;99.90;;;;;;5060059;28;20224;-47
2022/03/04 08:18:31;;;;;;;44.33;24.40;;;4.00;99.90;;;;;;5059904;28;20199;-49
2022/03/04 08:21:00;;;;;;;44.83;22.52;;;4.00;99.90;;;;;;5060138;28;20195;-44
2022/03/04 08:23:28;;;;;;;47.90;23.70;;;3.90;99.90;;;;;;5059979;28;20205;-50
2022/03/04 08:25:57;;;;;;;43.83;25.20;;;3.90;99.90;;;;;;5059804;28;20524;-45
2022/03/04 08:28:24;;;;;;;49.78;27.05;;;3.90;99.90;;;;;;5060063;28;20193;-45
2022/03/04 08:30:51;;;;;;;46.17;25.23;;;4.10;99.90;;;;;;5059561;28;20201;-47
2022/03/04 08:33:19;;;;;;;49.95;25.23;;;4.30;99.90;;;;;;5060039;28;20257;-45
2022/03/04 08:35:46;;;;;;;50.25;23.83;;;4.40;99.90;;;;;;5059310;28;20249;-46
2022/03/04 08:38:13;;;;;;;48.97;25.27;;;4.50;99.90;;;;;;5059530;28;20634;-46
2022/03/04 08:40:41;;;;;;;36.85;22.45;;;4.50;99.90;;;;;;5059032;28;20207;-49
2022/03/04 08:43:08;;;;;;;39.78;23.08;;;4.70;99.90;;;;;;5060393;28;20219;-45
2022/03/04 08:45:35;;;;;;;44.13;22.55;;;4.70;99.90;;;;;;5059916;28;20198;-48
2022/03/04 08:48:06;;;;;;;43.78;22.95;;;4.80;99.90;;;;;;5048270;28;20466;-44
2022/03/04 08:50:34;;;;;;;37.53;22.63;;;4.90;99.90;;;;;;5039415;28;20307;-48
2022/03/04 08:53:07;;;;;;;45.28;23.77;;;5.00;99.90;;;;;;5040044;28;20219;-50
2022/03/04 08:55:35;;;;;;;35.10;20.88;;;5.20;99.90;;;;;;5039809;28;20196;-47
2022/03/04 08:58:02;;;;;;;41.35;23.45;;;5.20;99.90;;;;;;5038352;28;20238;-47
2022/03/04 09:00:29;;;;;;;47.53;25.00;;;5.10;99.90;;;;;;5049296;28;20258;-49
2022/03/04 09:02:56;;;;;;;43.38;26.48;;;4.90;99.90;;;;;;5057025;28;20380;-48
2022/03/04 09:05:24;;;;;;;50.75;24.23;;;4.60;99.90;;;;;;5059446;28;20205;-48
2022/03/04 09:07:51;;;;;;;40.65;22.08;;;4.30;99.90;;;;;;5059162;28;20217;-46
2022/03/04 09:10:18;;;;;;;38.13;22.48;;;4.40;99.90;;;;;;5058583;28;20226;-48
2022/03/04 09:12:45;;;;;;;44.58;22.38;;;4.50;99.90;;;;;;5058004;28;20234;-51
2022/03/04 09:15:12;;;;;;;39.55;23.23;;;4.20;99.90;;;;;;5057996;28;20207;-48
2022/03/04 09:17:40;;;;;;;48.63;24.45;;;4.40;99.90;;;;;;5059063;28;20239;-49
2022/03/04 09:20:08;;;;;;;38.03;23.17;;;4.40;99.90;;;;;;5059925;28;20408;-48
2022/03/04 09:22:35;;;;;;;45.95;20.85;;;4.20;99.90;;;;;;5059325;28;20228;-48
2022/03/04 09:25:04;;;;;;;40.75;24.08;;;4.10;99.90;;;;;;5059147;28;20218;-49
2022/03/04 09:27:31;;;;;;;43.03;23.65;;;4.30;99.90;;;;;;5059524;28;20229;-49
2022/03/04 09:29:59;;;;;;;40.30;23.20;;;4.80;99.90;;;;;;5059544;28;20243;-46
2022/03/04 09:32:26;;;;;;;47.20;24.08;;;5.20;99.90;;;;;;5058545;28;20292;-50
2022/03/04 09:34:53;;;;;;;41.85;24.60;;;5.50;99.90;;;;;;5058481;28;20330;-49
2022/03/04 09:37:20;;;;;;;41.88;23.63;;;5.90;99.90;;;;;;5058402;28;20227;-51
2022/03/04 09:39:47;;;;;;;36.63;22.23;;;6.00;99.90;;;;;;5044185;28;20213;-49
2022/03/04 09:42:14;;;;;;;38.95;23.58;;;6.50;99.90;;;;;;5038215;28;20216;-48
2022/03/04 09:44:41;;;;;;;49.05;24.50;;;6.70;99.90;;;;;;5038867;28;20199;-49
2022/03/04 09:47:10;;;;;;;31.02;18.90;;;7.00;99.90;;;;;;5038393;28;20204;-47
2022/03/04 09:49:38;;;;;;;37.47;20.73;;;7.00;99.90;;;;;;5038354;28;20208;-53
2022/03/04 09:52:06;;;;;;;35.72;22.48;;;6.90;99.90;;;;;;5039208;28;20258;-53
2022/03/04 09:54:33;;;;;;;33.63;22.00;;;6.90;99.90;;;;;;5038248;28;20200;-50
2022/03/04 09:57:00;;;;;;;35.85;19.30;;;7.10;99.90;;;;;;5038596;28;20223;-51
2022/03/04 09:59:27;;;;;;;31.25;18.40;;;7.30;99.90;;;;;;5038818;28;20518;-50
2022/03/04 10:01:58;;;;;;;34.67;21.42;;;7.50;99.90;;;;;;5038213;28;20224;-52
2022/03/04 10:04:26;;;;;;;30.98;18.90;;;7.40;99.90;;;;;;5038157;28;20244;-49
2022/03/04 10:06:53;;;;;;;35.30;19.42;;;7.80;99.90;;;;;;5038083;28;20484;-50
2022/03/04 10:09:37;;;;;;;37.60;19.23;;;7.50;99.90;;;;;;5038435;28;20271;-52
2022/03/04 10:12:07;;;;;;;35.28;19.52;;;7.60;99.90;;;;;;5038377;28;20223;-51
2022/03/04 10:14:35;;;;;;;30.27;18.67;;;7.70;99.90;;;;;;5038136;28;20196;-51
2022/03/04 10:17:02;;;;;;;30.13;18.40;;;7.60;99.90;;;;;;5037803;28;20220;-50
2022/03/04 10:19:33;;;;;;;29.80;16.63;;;7.20;99.90;;;;;;5038209;28;20238;-50
2022/03/04 10:22:05;;;;;;;32.10;17.85;;;7.30;99.90;;;;;;5037888;28;20216;-53
2022/03/04 10:24:32;;;;;;;35.50;17.98;;;7.80;99.90;;;;;;5037891;28;20193;-47
2022/03/04 10:27:02;;;;;;;40.63;19.05;;;7.60;99.90;;;;;;5038091;28;20515;-48
2022/03/04 10:29:46;;;;;;;30.95;19.88;;;7.50;99.90;;;;;;5038053;28;20200;-51
2022/03/04 10:32:24;;;;;;;39.78;18.30;;;7.20;99.90;;;;;;5038006;28;20232;-52
2022/03/04 10:35:01;;;;;;;28.17;18.00;;;6.80;99.90;;;;;;5039313;28;20429;-50
2022/03/04 10:37:56;;;;;;;35.42;18.92;;;6.40;99.90;;;;;;5041210;28;20231;-51
2022/03/04 10:40:29;;;;;;;21.63;14.82;;;6.00;99.90;;;;;;5041773;28;20467;-52
2022/03/04 10:43:04;;;;;;;33.22;16.33;;;5.60;99.90;;;;;;5041733;28;20224;-48
2022/03/04 10:45:34;;;;;;;25.27;16.15;;;5.50;99.90;;;;;;5041282;28;20519;-51
2022/03/04 10:48:12;;;;;;;20.17;16.08;;;5.50;99.90;;;;;;5041479;28;20201;-53
2022/03/04 10:50:44;;;;;;;28.13;15.93;;;5.70;99.90;;;;;;5041017;28;20383;-51
2022/03/04 10:53:14;;;;;;;23.95;16.50;;;5.60;99.90;;;;;;5041690;28;20224;-52
2022/03/04 10:55:44;;;;;;;22.90;15.15;;;5.60;99.90;;;;;;5041172;28;20501;-51
2022/03/04 10:58:22;;;;;;;25.60;14.75;;;5.40;99.90;;;;;;5041347;28;20441;-49
2022/03/04 11:00:55;;;;;;;24.85;13.60;;;5.20;99.90;;;;;;5036362;28;20246;-49
2022/03/04 11:03:24;;;;;;;31.65;14.68;;;5.10;99.90;;;;;;5032357;28;20314;-52
2022/03/04 11:05:54;;;;;;;29.75;16.10;;;5.00;99.90;;;;;;5048916;28;20204;-49
2022/03/04 11:08:22;;;;;;;19.88;12.52;;;4.90;99.90;;;;;;5055008;28;20203;-49
2022/03/04 11:10:51;;;;;;;22.95;12.80;;;4.80;99.90;;;;;;5040376;28;20514;-46
2022/03/04 11:13:19;;;;;;;19.70;12.32;;;4.70;99.90;;;;;;5040019;28;20248;-52
2022/03/04 11:15:47;;;;;;;19.38;12.98;;;4.60;99.90;;;;;;5041204;28;20206;-50
2022/03/04 11:18:25;;;;;;;24.05;11.77;;;4.50;99.90;;;;;;5041000;28;20254;-48
2022/03/04 11:20:55;;;;;;;20.50;11.93;;;4.50;99.90;;;;;;5041080;28;20501;-49
2022/03/04 11:23:31;;;;;;;22.33;12.40;;;4.60;99.90;;;;;;5040790;28;21062;-48
2022/03/04 11:26:03;;;;;;;16.95;11.00;;;4.60;99.90;;;;;;5041392;28;20202;-52
2022/03/04 11:28:39;;;;;;;20.67;12.95;;;4.50;99.90;;;;;;5041047;28;20206;-55
2022/03/04 11:31:10;;;;;;;20.52;12.43;;;4.60;99.90;;;;;;5040666;28;20211;-50
2022/03/04 11:33:51;;;;;;;24.63;13.50;;;4.50;99.90;;;;;;5040769;28;20292;-52
2022/03/04 11:36:25;;;;;;;23.55;13.65;;;4.30;99.90;;;;;;5040507;28;20198;-49
2022/03/04 11:38:53;;;;;;;18.50;11.63;;;4.40;99.90;;;;;;5040974;28;20544;-51
2022/03/04 11:41:26;;;;;;;18.83;13.13;;;4.30;99.90;;;;;;5040540;28;20560;-53
2022/03/04 11:44:09;;;;;;;23.95;13.77;;;4.40;99.90;;;;;;5040644;28;20203;-50
2022/03/04 11:46:47;;;;;;;23.60;11.45;;;4.40;99.90;;;;;;5039753;28;20238;-53
2022/03/04 11:49:38;;;;;;;28.00;14.20;;;4.40;99.90;;;;;;5040026;28;20215;-53
2022/03/04 11:52:09;;;;;;;25.58;14.43;;;4.30;99.90;;;;;;5040630;28;20222;-52
2022/03/04 11:54:41;;;;;;;15.80;12.48;;;4.30;99.90;;;;;;5040066;28;20202;-50
2022/03/04 11:57:27;;;;;;;17.63;9.77;;;4.40;99.90;;;;;;5040077;28;20222;-49
2022/03/04 12:00:01;;;;;;;17.98;11.45;;;4.60;99.90;;;;;;5040210;28;20200;-48
2022/03/04 12:02:29;;;;;;;22.17;11.85;;;4.60;99.90;;;;;;5040441;28;20536;-48
2022/03/04 12:05:15;;;;;;;22.23;11.10;;;5.00;99.90;;;;;;5045902;28;20198;-51
2022/03/04 12:07:44;;;;;;;14.50;10.38;;;5.30;99.90;;;;;;5051656;28;20554;-50
2022/03/04 12:10:23;;;;;;;18.48;11.30;;;5.60;99.90;;;;;;5059578;28;20271;-51
2022/03/04 12:13:06;;;;;;;18.95;10.75;;;5.80;99.90;;;;;;5059751;28;20740;-50
2022/03/04 12:15:44;;;;;;;12.98;10.80;;;5.80;99.90;;;;;;5060528;28;20203;-53
2022/03/04 12:18:17;;;;;;;12.73;9.27;;;5.70;99.90;;;;;;5059326;28;20265;-53
2022/03/04 12:20:44;;;;;;;15.75;10.90;;;5.60;99.90;;;;;;5059769;28;20238;-52
2022/03/04 12:23:16;;;;;;;25.23;12.38;;;5.30;99.90;;;;;;5059534;28;20223;-49
2022/03/04 12:28:24;;;;;;;17.17;10.93;;;4.50;99.90;;;;;;5059680;28;20213;-51
2022/03/04 12:31:00;;;;;;;20.02;12.18;;;4.50;99.90;;;;;;5060361;28;20466;-49
2022/03/04 12:33:29;;;;;;;20.95;10.88;;;4.70;99.90;;;;;;5059676;28;20219;-52
2022/03/04 12:36:00;;;;;;;15.55;12.18;;;5.00;99.90;;;;;;5059621;28;20556;-49
2022/03/04 12:38:29;;;;;;;13.25;9.80;;;5.20;99.90;;;;;;5059182;28;20223;-52
2022/03/04 12:40:57;;;;;;;12.27;10.30;;;5.40;99.90;;;;;;5059414;28;20230;-52
2022/03/04 12:43:25;;;;;;;12.95;9.75;;;5.60;99.90;;;;;;5059464;28;20218;-50
2022/03/04 12:45:53;;;;;;;11.40;8.70;;;5.70;99.90;;;;;;5059106;28;20496;-47
2022/03/04 12:48:21;;;;;;;14.25;9.85;;;5.50;99.90;;;;;;5059375;28;20221;-50